createdAt,value
2024-01-11T00:02:19.642Z,46.60
2024-01-11T00:04:48.068Z,47.00
2024-01-11T00:07:17.848Z,46.40
2024-01-11T00:09:46.275Z,46.30
2024-01-11T00:12:14.809Z,46.20
2024-01-11T00:14:43.242Z,46.10
2024-01-11T00:17:11.716Z,46.10
2024-01-11T00:19:40.319Z,46.00
2024-01-11T00:22:08.815Z,46.10
2024-01-11T00:24:39.731Z,45.90
2024-01-11T00:27:08.323Z,45.80
2024-01-11T00:29:38.181Z,45.80
2024-01-11T00:32:07.155Z,45.90
2024-01-11T00:34:37.217Z,45.90
2024-01-11T00:37:06.068Z,45.80
2024-01-11T00:39:34.385Z,45.80
2024-01-11T00:42:04.173Z,45.70
2024-01-11T00:44:32.582Z,45.70
2024-01-11T00:47:00.992Z,45.70
2024-01-11T00:49:29.423Z,45.70
2024-01-11T00:51:57.789Z,45.70
2024-01-11T00:54:26.229Z,45.70
2024-01-11T00:56:54.613Z,45.70
2024-01-11T00:59:24.359Z,45.60
2024-01-11T01:01:53.033Z,45.60
2024-01-11T01:04:21.458Z,45.70
2024-01-11T01:06:49.955Z,45.60
2024-01-11T01:09:18.313Z,45.60
2024-01-11T01:11:46.789Z,45.60
2024-01-11T01:14:15.347Z,45.50
2024-01-11T01:16:45.003Z,45.60
2024-01-11T01:19:13.474Z,45.60
2024-01-11T01:21:42.029Z,45.50
2024-01-11T01:24:10.728Z,45.50
2024-01-11T01:26:39.224Z,45.50
2024-01-11T01:29:07.644Z,45.50
2024-01-11T01:31:38.699Z,45.40
2024-01-11T01:34:09.928Z,45.50
2024-01-11T01:36:38.461Z,45.40
2024-01-11T01:39:06.881Z,45.50
2024-01-11T01:41:35.324Z,45.40
2024-01-11T01:44:03.874Z,45.50
2024-01-11T01:46:32.465Z,45.60
2024-01-11T01:49:01.365Z,45.60
2024-01-11T01:51:33.128Z,45.60
2024-01-11T01:54:02.268Z,45.60
2024-01-11T01:56:31.395Z,45.70
2024-01-11T01:59:03.012Z,45.70
2024-01-11T02:01:32.270Z,45.60
2024-01-11T02:04:01.502Z,45.60
2024-01-11T02:06:34.936Z,45.60
2024-01-11T02:09:05.228Z,45.60
2024-01-11T02:11:33.707Z,45.50
2024-01-11T02:14:02.599Z,45.50
2024-01-11T02:16:30.957Z,45.50
2024-01-11T02:18:59.439Z,45.50
2024-01-11T02:21:33.173Z,45.50
2024-01-11T02:24:10.114Z,45.60
2024-01-11T02:26:38.623Z,45.50
2024-01-11T02:29:06.971Z,45.50
2024-01-11T02:31:35.555Z,45.50
2024-01-11T02:34:04.029Z,45.50
2024-01-11T02:36:32.668Z,45.50
2024-01-11T02:39:01.524Z,45.30
2024-01-11T02:41:31.782Z,45.40
2024-01-11T02:44:01.132Z,45.40
2024-01-11T02:46:29.475Z,45.30
2024-01-11T02:48:58.045Z,45.30
2024-01-11T02:51:26.433Z,45.40
2024-01-11T02:53:54.846Z,45.40
2024-01-11T02:56:24.819Z,45.30
2024-01-11T02:58:54.573Z,45.40
2024-01-11T03:01:22.974Z,45.50
2024-01-11T03:03:52.892Z,45.50
2024-01-11T03:06:23.503Z,45.60
2024-01-11T03:08:51.996Z,45.60
2024-01-11T03:11:20.454Z,45.60
2024-01-11T03:13:48.825Z,45.60
2024-01-11T03:16:18.641Z,45.40
2024-01-11T03:18:47.128Z,45.40
2024-01-11T03:21:15.669Z,45.40
2024-01-11T03:23:44.516Z,45.50
2024-01-11T03:26:16.621Z,45.40
2024-01-11T03:28:45.572Z,45.40
2024-01-11T03:31:14.113Z,45.40
2024-01-11T03:33:43.972Z,45.40
2024-01-11T03:36:13.810Z,45.30
2024-01-11T03:38:42.330Z,45.40
2024-01-11T03:41:12.026Z,45.50
2024-01-11T03:43:40.708Z,45.40
2024-01-11T03:46:09.301Z,45.40
2024-01-11T03:48:38.175Z,45.30
2024-01-11T03:51:08.425Z,45.30
2024-01-11T03:53:38.972Z,45.40
2024-01-11T03:56:07.875Z,45.40
2024-01-11T03:58:40.154Z,45.40
2024-01-11T04:01:10.806Z,45.30
2024-01-11T04:03:39.628Z,45.20
2024-01-11T04:06:09.718Z,45.30
2024-01-11T04:08:38.499Z,45.30
2024-01-11T04:11:06.906Z,45.40
2024-01-11T04:13:35.298Z,45.30
2024-01-11T04:16:07.523Z,45.40
2024-01-11T04:18:36.353Z,45.60
2024-01-11T04:21:05.528Z,45.60
2024-01-11T04:23:36.047Z,45.40
2024-01-11T04:26:04.971Z,45.30
2024-01-11T04:28:33.411Z,45.20
2024-01-11T04:31:01.748Z,45.10
2024-01-11T04:33:30.237Z,45.20
2024-01-11T04:35:58.792Z,45.20
2024-01-11T04:38:27.320Z,45.10
2024-01-11T04:40:57.080Z,45.20
2024-01-11T04:43:25.429Z,45.20
2024-01-11T04:45:54.040Z,45.20
2024-01-11T04:48:22.552Z,45.70
2024-01-11T04:50:51.017Z,46.20
2024-01-11T04:53:19.638Z,46.50
2024-01-11T04:55:47.974Z,46.60
2024-01-11T04:58:17.790Z,46.70
2024-01-11T05:00:46.214Z,47.10
2024-01-11T05:03:14.646Z,47.10
2024-01-11T05:05:43.291Z,47.20
2024-01-11T05:08:11.724Z,47.30
2024-01-11T05:10:40.075Z,47.50
2024-01-11T05:13:08.398Z,47.50
2024-01-11T05:15:38.539Z,47.00
2024-01-11T05:18:07.160Z,46.40
2024-01-11T05:20:35.782Z,46.10
2024-01-11T05:23:04.303Z,46.00
2024-01-11T05:25:34.645Z,46.00
2024-01-11T05:28:03.487Z,46.10
2024-01-11T05:30:32.255Z,46.80
2024-01-11T05:33:02.158Z,46.40
2024-01-11T05:35:30.797Z,46.50
2024-01-11T05:37:59.217Z,46.60
2024-01-11T05:40:28.377Z,46.60
2024-01-11T05:42:56.805Z,46.60
2024-01-11T05:45:31.787Z,46.80
2024-01-11T05:48:07.211Z,46.80
2024-01-11T05:50:35.707Z,46.80
2024-01-11T05:53:04.352Z,46.90
2024-01-11T05:55:32.744Z,46.90
2024-01-11T05:58:01.133Z,46.90
2024-01-11T06:00:29.599Z,46.90
2024-01-11T06:02:58.082Z,46.80
2024-01-11T06:05:28.084Z,46.80
2024-01-11T06:07:56.587Z,46.90
2024-01-11T06:10:24.892Z,46.90
2024-01-11T06:12:53.260Z,47.00
2024-01-11T06:15:21.714Z,47.10
2024-01-11T06:17:50.372Z,47.20
2024-01-11T06:20:18.874Z,48.00
2024-01-11T06:22:48.730Z,48.10
2024-01-11T06:25:17.467Z,48.00
2024-01-11T06:27:45.919Z,47.80
2024-01-11T06:30:15.463Z,47.90
2024-01-11T06:32:44.198Z,48.20
2024-01-11T06:35:12.692Z,48.40
2024-01-11T06:37:41.211Z,48.00
2024-01-11T06:40:12.472Z,47.70
2024-01-11T06:42:41.192Z,47.60
2024-01-11T06:45:11.520Z,47.60
2024-01-11T06:47:40.173Z,47.60
2024-01-11T06:50:10.729Z,47.40
2024-01-11T06:52:39.131Z,47.40
2024-01-11T06:55:11.449Z,47.40
2024-01-11T06:57:40.145Z,47.40
2024-01-11T07:00:10.162Z,47.30
2024-01-11T07:02:41.354Z,47.20
2024-01-11T07:05:10.351Z,47.30
2024-01-11T07:07:39.182Z,47.20
2024-01-11T07:10:10.304Z,47.20
2024-01-11T07:12:38.974Z,47.40
2024-01-11T07:15:09.074Z,48.70
2024-01-11T07:17:37.807Z,47.80
2024-01-11T07:20:08.961Z,45.30
2024-01-11T07:22:39.757Z,44.30
2024-01-11T07:25:11.696Z,44.10
2024-01-11T07:27:40.041Z,44.40
2024-01-11T07:30:10.400Z,44.30
2024-01-11T07:32:39.323Z,44.30
2024-01-11T07:35:13.374Z,44.50
2024-01-11T07:37:43.792Z,44.20
2024-01-11T07:40:14.606Z,44.10
2024-01-11T07:42:44.033Z,44.10
2024-01-11T07:45:12.921Z,44.10
2024-01-11T07:47:42.005Z,44.20
2024-01-11T07:50:11.897Z,44.40
2024-01-11T07:52:42.519Z,44.10
2024-01-11T07:55:14.183Z,43.70
2024-01-11T07:57:43.072Z,43.00
2024-01-11T08:00:12.088Z,42.90
2024-01-11T08:02:43.594Z,43.10
2024-01-11T08:05:12.757Z,43.30
2024-01-11T08:07:43.180Z,43.40
2024-01-11T08:10:13.299Z,43.60
2024-01-11T08:12:41.706Z,43.60
2024-01-11T08:15:13.570Z,43.60
2024-01-11T08:17:48.281Z,43.80
2024-01-11T08:20:17.233Z,43.90
2024-01-11T08:22:47.237Z,44.10
2024-01-11T08:25:17.385Z,44.20
2024-01-11T08:27:45.717Z,44.40
2024-01-11T08:30:14.832Z,44.60
2024-01-11T08:32:43.752Z,44.80
2024-01-11T08:35:13.891Z,44.80
2024-01-11T08:37:42.506Z,44.80
2024-01-11T08:40:12.114Z,45.50
2024-01-11T08:42:42.510Z,44.90
2024-01-11T08:45:11.886Z,44.90
2024-01-11T08:47:41.502Z,44.80
2024-01-11T08:50:14.142Z,44.90
2024-01-11T08:52:43.484Z,44.90
2024-01-11T08:55:13.816Z,44.90
2024-01-11T08:57:43.629Z,44.90
2024-01-11T09:00:18.308Z,45.00
2024-01-11T09:02:46.901Z,44.90
2024-01-11T09:05:17.288Z,44.90
2024-01-11T09:07:46.043Z,44.90
2024-01-11T09:10:15.502Z,44.90
2024-01-11T09:12:45.344Z,44.90
2024-01-11T09:15:13.609Z,44.90
2024-01-11T09:17:42.180Z,44.90
2024-01-11T09:20:15.268Z,44.70
2024-01-11T09:22:43.779Z,44.80
2024-01-11T09:25:12.074Z,44.90
2024-01-11T09:27:40.654Z,44.80
2024-01-11T09:30:11.689Z,44.40
2024-01-11T09:32:40.318Z,44.50
2024-01-11T09:35:11.849Z,44.60
2024-01-11T09:37:43.845Z,44.60
2024-01-11T09:40:12.846Z,44.70
2024-01-11T09:42:42.151Z,44.60
2024-01-11T09:45:16.618Z,44.60
2024-01-11T09:47:46.932Z,44.60
2024-01-11T09:50:18.610Z,44.60
2024-01-11T09:52:49.482Z,44.70
2024-01-11T09:55:18.309Z,44.80
2024-01-11T09:57:49.304Z,44.90
2024-01-11T10:00:25.038Z,44.90
2024-01-11T10:02:54.590Z,45.00
2024-01-11T10:05:23.160Z,45.60
2024-01-11T10:07:51.552Z,45.00
2024-01-11T10:10:19.882Z,45.10
2024-01-11T10:12:50.722Z,45.10
2024-01-11T10:15:20.456Z,44.80
2024-01-11T10:17:49.243Z,45.40
2024-01-11T10:20:18.935Z,45.20
2024-01-11T10:22:49.386Z,45.30
2024-01-11T10:25:19.094Z,45.60
2024-01-11T10:27:47.877Z,45.20
2024-01-11T10:30:20.342Z,45.30
2024-01-11T10:32:49.686Z,45.40
2024-01-11T10:35:19.840Z,45.50
2024-01-11T10:37:54.580Z,45.60
2024-01-11T10:40:26.296Z,45.50
2024-01-11T10:42:55.123Z,45.50
2024-01-11T10:45:26.050Z,45.60
2024-01-11T10:48:00.680Z,45.70
2024-01-11T10:50:36.721Z,45.70
2024-01-11T10:53:14.638Z,45.80
2024-01-11T10:55:44.452Z,45.80
2024-01-11T10:58:14.540Z,45.70
2024-01-11T11:00:44.465Z,45.70
2024-01-11T11:03:14.736Z,46.00
2024-01-11T11:05:44.052Z,45.80
2024-01-11T11:08:13.521Z,46.10
2024-01-11T11:10:44.027Z,46.00
2024-01-11T11:13:14.475Z,45.90
2024-01-11T11:15:47.817Z,46.00
2024-01-11T11:18:17.292Z,45.70
2024-01-11T11:20:46.062Z,45.70
2024-01-11T11:23:18.560Z,45.60
2024-01-11T11:25:49.584Z,45.20
2024-01-11T11:28:20.156Z,44.60
2024-01-11T11:30:53.177Z,43.90
2024-01-11T11:33:25.483Z,43.30
2024-01-11T11:35:56.241Z,42.80
2024-01-11T11:38:26.771Z,42.30
2024-01-11T11:40:56.879Z,42.00
2024-01-11T11:43:25.817Z,42.20
2024-01-11T11:45:58.838Z,41.70
2024-01-11T11:48:55.559Z,42.20
2024-01-11T11:51:27.843Z,42.70
2024-01-11T11:53:57.956Z,42.70
2024-01-11T11:56:26.854Z,43.30
2024-01-11T11:58:56.258Z,43.60
2024-01-11T12:01:26.568Z,43.50
2024-01-11T12:03:55.390Z,43.20
2024-01-11T12:06:26.305Z,43.00
2024-01-11T12:08:57.890Z,42.70
2024-01-11T12:11:27.989Z,42.60
2024-01-11T12:13:58.733Z,42.50
2024-01-11T12:16:29.731Z,42.60
2024-01-11T12:18:58.238Z,42.70
2024-01-11T12:21:27.316Z,42.70
2024-01-11T12:23:56.008Z,42.70
2024-01-11T12:26:24.969Z,42.70
2024-01-11T12:28:54.151Z,42.80
2024-01-11T12:31:24.417Z,42.80
2024-01-11T12:33:56.095Z,42.90
2024-01-11T12:36:25.227Z,42.90
2024-01-11T12:38:54.180Z,42.90
2024-01-11T12:41:25.196Z,43.00
2024-01-11T12:43:54.689Z,43.10
2024-01-11T12:46:23.773Z,43.40
2024-01-11T12:48:53.909Z,43.20
2024-01-11T12:51:23.531Z,43.20
2024-01-11T12:53:55.173Z,43.20
2024-01-11T12:56:24.419Z,43.30
2024-01-11T12:58:53.395Z,43.20
2024-01-11T13:01:22.509Z,43.30
2024-01-11T13:03:51.650Z,43.20
2024-01-11T13:06:21.919Z,43.30
2024-01-11T13:08:50.396Z,43.40
2024-01-11T13:11:22.262Z,43.40
2024-01-11T13:13:50.837Z,43.50
2024-01-11T13:16:20.333Z,43.50
2024-01-11T13:18:49.402Z,43.80
2024-01-11T13:21:18.134Z,44.00
2024-01-11T13:23:48.065Z,43.90
2024-01-11T13:26:16.663Z,44.10
2024-01-11T13:28:45.028Z,43.90
2024-01-11T13:31:13.526Z,44.00
2024-01-11T13:33:41.981Z,44.00
2024-01-11T13:36:10.550Z,44.10
2024-01-11T13:38:39.402Z,44.10
2024-01-11T13:41:10.041Z,44.10
2024-01-11T13:43:38.683Z,44.00
2024-01-11T13:46:07.190Z,44.00
2024-01-11T13:48:36.423Z,44.00
2024-01-11T13:51:05.668Z,44.00
2024-01-11T13:53:34.247Z,44.10
2024-01-11T13:56:03.089Z,44.00
2024-01-11T13:58:33.215Z,44.10
2024-01-11T14:01:01.624Z,44.10
2024-01-11T14:03:30.144Z,44.20
2024-01-11T14:05:59.195Z,44.10
2024-01-11T14:08:28.248Z,44.20
2024-01-11T14:10:57.456Z,45.20
2024-01-11T14:13:26.050Z,44.40
2024-01-11T14:15:56.075Z,44.40
2024-01-11T14:18:25.662Z,44.50
2024-01-11T14:20:54.728Z,44.50
2024-01-11T14:23:23.478Z,44.50
2024-01-11T14:25:51.872Z,44.50
2024-01-11T14:28:20.247Z,44.80
2024-01-11T14:30:49.769Z,45.40
2024-01-11T14:33:21.222Z,45.40
2024-01-11T14:35:49.841Z,45.40
2024-01-11T14:38:18.499Z,45.60
2024-01-11T14:40:47.540Z,45.50
2024-01-11T14:43:16.186Z,45.50
2024-01-11T14:45:44.545Z,45.50
2024-01-11T14:48:13.688Z,45.60
2024-01-11T14:50:43.843Z,46.30
2024-01-11T14:53:12.211Z,53.70
2024-01-11T14:55:40.705Z,50.20
2024-01-11T14:58:10.116Z,49.40
2024-01-11T15:00:38.463Z,49.80
2024-01-11T15:03:07.591Z,49.90
2024-01-11T15:05:37.335Z,49.80
2024-01-11T15:08:07.662Z,49.70
2024-01-11T15:10:36.234Z,49.60
2024-01-11T15:13:04.883Z,49.40
2024-01-11T15:15:33.665Z,49.30
2024-01-11T15:18:02.453Z,49.20
2024-01-11T15:20:30.910Z,49.00
2024-01-11T15:22:59.565Z,49.10
2024-01-11T15:25:29.449Z,49.10
2024-01-11T15:27:57.874Z,49.10
2024-01-11T15:30:26.605Z,49.30
2024-01-11T15:32:56.343Z,49.20
2024-01-11T15:35:26.389Z,49.20
2024-01-11T15:37:54.884Z,49.30
2024-01-11T15:40:23.321Z,49.30
2024-01-11T15:42:53.037Z,49.40
2024-01-11T15:45:21.850Z,49.30
2024-01-11T15:47:50.354Z,49.20
2024-01-11T15:50:18.752Z,49.30
2024-01-11T15:52:47.220Z,49.30
2024-01-11T15:55:15.802Z,49.50
2024-01-11T15:57:44.166Z,49.90
2024-01-11T16:00:15.678Z,49.00
2024-01-11T16:02:44.510Z,47.80
2024-01-11T16:05:12.998Z,48.00
2024-01-11T16:07:41.887Z,47.80
2024-01-11T16:10:11.671Z,47.40
2024-01-11T16:12:40.319Z,47.40
2024-01-11T16:15:10.953Z,47.50
2024-01-11T16:17:40.897Z,47.60
2024-01-11T16:20:12.312Z,47.50
2024-01-11T16:22:40.865Z,47.50
2024-01-11T16:25:09.882Z,47.60
2024-01-11T16:27:39.573Z,47.70
2024-01-11T16:30:09.431Z,47.70
2024-01-11T16:32:38.425Z,47.90
2024-01-11T16:35:09.808Z,47.90
2024-01-11T16:37:38.241Z,47.70
2024-01-11T16:40:10.957Z,47.70
2024-01-11T16:42:39.713Z,47.60
2024-01-11T16:45:10.953Z,47.50
2024-01-11T16:47:40.035Z,47.40
2024-01-11T16:50:11.053Z,47.30
2024-01-11T16:52:40.424Z,47.40
2024-01-11T16:55:10.290Z,48.00
2024-01-11T16:57:38.683Z,47.40
2024-01-11T17:00:09.331Z,47.40
2024-01-11T17:02:37.785Z,47.30
2024-01-11T17:05:06.822Z,47.30
2024-01-11T17:07:36.715Z,47.30
2024-01-11T17:10:06.192Z,47.40
2024-01-11T17:12:34.506Z,47.40
2024-01-11T17:15:03.284Z,47.50
2024-01-11T17:17:31.927Z,47.60
2024-01-11T17:20:00.621Z,47.80
2024-01-11T17:22:29.078Z,48.00
2024-01-11T17:24:58.997Z,47.90
2024-01-11T17:27:27.312Z,48.10
2024-01-11T17:29:55.674Z,48.30
2024-01-11T17:32:24.303Z,48.20
2024-01-11T17:34:54.162Z,48.30
2024-01-11T17:37:23.111Z,48.20
2024-01-11T17:39:52.222Z,48.10
2024-01-11T17:42:22.081Z,48.40
2024-01-11T17:44:50.919Z,48.10
2024-01-11T17:47:19.621Z,48.10
2024-01-11T17:49:48.244Z,47.90
2024-01-11T17:52:17.351Z,47.90
2024-01-11T17:54:47.297Z,47.60
2024-01-11T17:57:18.041Z,47.60
2024-01-11T17:59:48.281Z,47.60
2024-01-11T18:02:16.760Z,47.80
2024-01-11T18:04:45.503Z,48.40
2024-01-11T18:07:14.093Z,49.20
2024-01-11T18:09:42.705Z,49.00
2024-01-11T18:12:11.152Z,50.40
2024-01-11T18:14:39.605Z,49.40
2024-01-11T18:17:09.428Z,49.00
2024-01-11T18:19:37.826Z,49.00
2024-01-11T18:22:06.606Z,49.60
2024-01-11T18:27:37.331Z,50.10
2024-01-11T18:30:07.209Z,50.30
2024-01-11T18:32:36.955Z,50.30
2024-01-11T18:35:06.084Z,51.30
2024-01-11T18:37:34.382Z,51.00
2024-01-11T18:40:02.900Z,50.50
2024-01-11T18:42:31.519Z,51.00
2024-01-11T18:45:00.194Z,50.60
2024-01-11T18:47:29.303Z,50.40
2024-01-11T18:49:59.128Z,54.30
2024-01-11T18:52:28.355Z,56.20
2024-01-11T18:55:05.242Z,56.80
2024-01-11T18:57:41.319Z,57.10
2024-01-11T19:00:11.470Z,57.50
2024-01-11T19:02:40.067Z,58.00
2024-01-11T19:05:14.044Z,58.00
2024-01-11T19:07:43.042Z,59.30
2024-01-11T19:10:12.023Z,59.90
2024-01-11T19:12:40.555Z,58.00
2024-01-11T19:15:10.312Z,48.40
2024-01-11T19:17:38.788Z,49.00
2024-01-11T19:20:10.500Z,51.70
2024-01-11T19:22:38.981Z,51.30
2024-01-11T19:25:07.921Z,51.60
2024-01-11T19:27:37.287Z,50.80
2024-01-11T19:30:09.070Z,49.80
2024-01-11T19:32:38.021Z,49.20
2024-01-11T19:35:09.364Z,48.60
2024-01-11T19:37:37.858Z,48.30
2024-01-11T19:40:08.158Z,48.00
2024-01-11T19:42:36.679Z,47.80
2024-01-11T19:45:06.220Z,47.60
2024-01-11T19:47:37.982Z,47.50
2024-01-11T19:50:09.677Z,47.30
2024-01-11T19:52:39.681Z,47.40
2024-01-11T19:55:09.103Z,47.40
2024-01-11T19:57:37.729Z,47.40
2024-01-11T20:00:08.324Z,47.50
2024-01-11T20:02:39.574Z,47.10
2024-01-11T20:05:08.777Z,47.40
2024-01-11T20:07:37.189Z,47.90
2024-01-11T20:10:08.182Z,49.80
2024-01-11T20:12:37.803Z,49.30
2024-01-11T20:15:09.357Z,49.40
2024-01-11T20:17:39.277Z,49.50
2024-01-11T20:20:10.321Z,50.70
2024-01-11T20:22:38.773Z,50.30
2024-01-11T20:25:09.420Z,50.50
2024-01-11T20:27:37.891Z,50.50
2024-01-11T20:30:11.030Z,50.60
2024-01-11T20:32:40.995Z,50.60
2024-01-11T20:35:10.377Z,50.60
2024-01-11T20:37:41.266Z,50.50
2024-01-11T20:40:12.340Z,50.40
2024-01-11T20:42:40.781Z,50.40
2024-01-11T20:45:10.064Z,50.40
2024-01-11T20:47:38.679Z,50.30
2024-01-11T20:50:08.811Z,50.30
2024-01-11T20:52:37.422Z,50.50
2024-01-11T20:55:06.318Z,50.50
2024-01-11T20:57:36.116Z,50.50
2024-01-11T21:00:09.498Z,50.00
2024-01-11T21:02:38.663Z,50.20
2024-01-11T21:05:08.077Z,50.40
2024-01-11T21:07:37.395Z,52.30
2024-01-11T21:10:07.069Z,52.50
2024-01-11T21:12:36.796Z,54.70
2024-01-11T21:15:06.785Z,55.70
2024-01-11T21:17:35.859Z,55.10
2024-01-11T21:20:04.555Z,54.70
2024-01-11T21:22:33.025Z,54.20
2024-01-11T21:25:01.377Z,53.90
2024-01-11T21:27:29.827Z,53.60
2024-01-11T21:29:59.734Z,53.80
2024-01-11T21:32:28.298Z,53.60
2024-01-11T21:34:56.841Z,53.60
2024-01-11T21:37:25.306Z,53.90
2024-01-11T21:39:54.838Z,53.80
2024-01-11T21:42:23.318Z,53.90
2024-01-11T21:44:53.004Z,53.90
2024-01-11T21:47:22.784Z,53.90
2024-01-11T21:49:51.831Z,54.00
2024-01-11T21:52:21.305Z,53.80
2024-01-11T21:54:49.630Z,49.20
2024-01-11T21:57:18.206Z,44.20
2024-01-11T21:59:46.597Z,43.40
2024-01-11T22:02:15.034Z,45.60
2024-01-11T22:04:44.887Z,50.70
2024-01-11T22:07:13.451Z,47.40
2024-01-11T22:09:43.484Z,47.20
2024-01-11T22:12:11.867Z,47.30
2024-01-11T22:14:40.582Z,47.70
2024-01-11T22:17:10.178Z,48.00
2024-01-11T22:19:38.756Z,48.20
2024-01-11T22:22:09.838Z,48.90
2024-01-11T22:24:38.228Z,49.20
2024-01-11T22:27:06.614Z,49.10
2024-01-11T22:29:35.092Z,48.90
2024-01-11T22:32:03.534Z,48.60
2024-01-11T22:34:31.927Z,48.60
2024-01-11T22:37:00.255Z,48.50
2024-01-11T22:39:29.993Z,48.40
2024-01-11T22:41:58.383Z,48.50
2024-01-11T22:44:26.811Z,48.30
2024-01-11T22:46:55.605Z,48.10
2024-01-11T22:49:24.042Z,48.10
2024-01-11T22:51:52.474Z,48.10
2024-01-11T22:54:20.797Z,48.10
2024-01-11T22:56:54.931Z,48.30
2024-01-11T22:59:23.703Z,48.30
2024-01-11T23:01:52.455Z,48.20
2024-01-11T23:04:20.804Z,48.10
2024-01-11T23:06:49.284Z,48.10
2024-01-11T23:09:17.899Z,48.10
2024-01-11T23:11:47.022Z,48.00
2024-01-11T23:14:19.388Z,47.90
2024-01-11T23:16:47.825Z,47.90
2024-01-11T23:19:17.070Z,47.80
2024-01-11T23:21:45.588Z,47.80
2024-01-11T23:24:14.728Z,47.70
2024-01-11T23:26:43.213Z,47.70
2024-01-11T23:29:11.690Z,47.70
2024-01-11T23:31:42.532Z,47.70
2024-01-11T23:34:12.005Z,47.70
2024-01-11T23:36:40.458Z,47.70
2024-01-11T23:39:09.143Z,47.70
2024-01-11T23:41:37.577Z,47.50
2024-01-11T23:44:06.383Z,47.50
2024-01-11T23:46:35.269Z,47.50
2024-01-11T23:49:05.957Z,47.30
2024-01-11T23:51:34.843Z,47.40
2024-01-11T23:54:03.388Z,48.00
2024-01-11T23:56:32.826Z,47.30
2024-01-11T23:59:01.236Z,47.30
